Time;durP1;ratioP1;P1;durP2;ratioP2;P2;SDS_P1;SDS_P2;PMS_P1;PMS_P2;Temp;Humidity;BMP_temperature;BMP_pressure;BME280_temperature;BME280_humidity;BME280_pressure;Samples;Min_cycle;Max_cycle;Signal;HPM_P1;HPM_P2
2023/07/05 00:01:26;;;;;;;37.40;14.30;;;;;;;15.80;70.63;100201.11;109928;1272;22219;-83
2023/07/05 00:03:57;;;;;;;31.30;14.70;;;;;;;15.77;70.89;100202.67;109980;1282;23071;-83
2023/07/05 00:06:28;;;;;;;29.30;13.80;;;;;;;15.73;70.91;100201.04;109944;1277;22202;-82
2023/07/05 00:09:00;;;;;;;31.00;13.90;;;;;;;15.70;71.23;100202.63;109916;1282;22169;-83
2023/07/05 00:11:31;;;;;;;32.60;14.00;;;;;;;15.67;71.59;100198.65;109948;1282;22209;-82
2023/07/05 00:14:02;;;;;;;30.20;12.60;;;;;;;15.63;71.79;100198.09;109942;1279;22417;-83
2023/07/05 00:16:32;;;;;;;30.90;14.40;;;;;;;15.57;72.07;100192.11;109936;1279;22176;-83
2023/07/05 00:19:03;;;;;;;31.80;14.00;;;;;;;15.53;72.14;100192.69;109938;1280;22198;-82
2023/07/05 00:21:34;;;;;;;27.20;13.50;;;;;;;15.49;72.15;100192.09;109958;1283;22376;-83
2023/07/05 00:24:05;;;;;;;34.40;13.80;;;;;;;15.43;72.30;100191.26;109944;1268;22215;-83
2023/07/05 00:26:36;;;;;;;30.70;13.70;;;;;;;15.37;72.35;100194.58;109931;1282;22174;-84
2023/07/05 00:29:07;;;;;;;27.40;11.90;;;;;;;15.32;72.56;100193.67;109943;1275;23019;-83
2023/07/05 00:31:39;;;;;;;27.10;12.30;;;;;;;15.23;72.98;100190.95;110006;1275;23252;-83
2023/07/05 00:34:10;;;;;;;30.20;12.90;;;;;;;15.12;73.15;100185.30;110046;1275;22181;-83
2023/07/05 00:36:41;;;;;;;32.10;16.30;;;;;;;15.04;73.48;100185.18;110017;1283;22213;-83
2023/07/05 00:39:12;;;;;;;33.80;13.60;;;;;;;15.01;73.68;100184.58;109925;1274;22222;-83
2023/07/05 00:41:43;;;;;;;27.30;13.10;;;;;;;14.99;73.67;100182.78;109943;1274;22199;-83
2023/07/05 00:44:14;;;;;;;30.60;14.00;;;;;;;14.93;73.62;100178.91;109922;1273;22510;-83
2023/07/05 00:46:50;;;;;;;30.20;12.50;;;;;;;14.88;73.98;100180.08;109949;1274;22170;-83
2023/07/05 00:49:24;;;;;;;32.70;14.00;;;;;;;14.83;73.96;100180.02;109936;1282;22411;-84
2023/07/05 00:51:59;;;;;;;29.50;13.70;;;;;;;14.82;74.51;100183.70;109892;1282;22257;-83
2023/07/05 00:54:33;;;;;;;34.40;14.00;;;;;;;14.82;74.38;100179.09;109934;1282;22164;-82
2023/07/05 00:57:08;;;;;;;30.20;14.80;;;;;;;14.78;74.19;100175.58;109930;1282;22180;-83
2023/07/05 00:59:52;;;;;;;31.20;13.70;;;;;;;14.73;74.50;100177.05;109961;1281;22284;-84
2023/07/05 01:02:24;;;;;;;34.00;14.20;;;;;;;14.68;74.75;100175.29;109939;1280;22860;-83
2023/07/05 01:04:55;;;;;;;39.20;14.40;;;;;;;14.65;74.97;100174.33;109928;1280;22791;-83
2023/07/05 01:07:25;;;;;;;33.90;13.90;;;;;;;14.62;74.95;100173.91;109940;1283;22171;-83
2023/07/05 01:09:56;;;;;;;31.70;13.90;;;;;;;14.60;75.16;100173.81;109961;1283;22267;-83
2023/07/05 01:12:33;;;;;;;30.10;13.60;;;;;;;14.58;74.92;100169.47;109940;1280;23201;-83
2023/07/05 01:15:08;;;;;;;33.80;14.20;;;;;;;14.56;75.07;100172.37;109842;1276;22163;-83
2023/07/05 01:17:45;;;;;;;34.90;13.30;;;;;;;14.53;75.32;100172.58;109955;1274;22173;-83
2023/07/05 01:20:27;;;;;;;28.10;13.50;;;;;;;14.51;75.42;100170.58;109951;1280;22165;-83
2023/07/05 01:23:29;;;;;;;31.50;14.40;;;;;;;14.49;75.77;100169.77;109912;1280;22243;-83
2023/07/05 01:26:24;;;;;;;31.60;15.20;;;;;;;14.46;76.19;100161.37;109525;1283;22358;-83
2023/07/05 01:29:44;;;;;;;33.60;14.80;;;;;;;14.43;76.22;100160.65;109527;1283;22236;-83
2023/07/05 01:32:17;;;;;;;30.60;14.50;;;;;;;14.40;76.30;100163.30;109555;1288;22346;-83
2023/07/05 01:34:55;;;;;;;31.50;15.00;;;;;;;14.38;76.35;100168.30;109535;1288;22226;-83
2023/07/05 01:37:35;;;;;;;31.00;14.80;;;;;;;14.37;77.08;100166.00;109518;1288;22261;-83
2023/07/05 01:40:36;;;;;;;33.70;14.50;;;;;;;14.35;76.95;100159.98;109524;1288;22210;-83
2023/07/05 01:43:10;;;;;;;31.80;14.80;;;;;;;14.31;76.95;100161.55;109552;1283;23464;-83
2023/07/05 01:46:23;;;;;;;31.10;13.90;;;;;;;14.27;76.87;100159.63;109550;1288;23008;-83
2023/07/05 01:49:25;;;;;;;30.40;14.70;;;;;;;14.25;76.66;100159.66;109499;1289;22442;-83
2023/07/05 01:52:02;;;;;;;29.50;14.30;;;;;;;14.21;76.87;100153.37;109558;1288;23020;-83
2023/07/05 01:54:41;;;;;;;30.40;14.60;;;;;;;14.17;77.40;100158.15;109440;1283;22215;-83
2023/07/05 01:57:17;;;;;;;31.10;14.50;;;;;;;14.15;77.47;100162.64;109551;1286;22343;-83
2023/07/05 01:59:55;;;;;;;29.10;13.60;;;;;;;14.14;77.69;100166.66;109456;1283;22898;-83
2023/07/05 02:02:30;;;;;;;38.50;15.50;;;;;;;14.08;77.53;100167.10;109521;1283;22262;-82
2023/07/05 02:05:22;;;;;;;32.30;14.90;;;;;;;14.02;77.58;100168.56;109925;1282;22176;-83
2023/07/05 02:07:54;;;;;;;33.50;14.70;;;;;;;13.96;78.21;100166.59;109926;1283;22212;-83
2023/07/05 02:10:25;;;;;;;30.60;14.70;;;;;;;13.94;78.14;100164.27;109950;1276;22858;-83
2023/07/05 02:12:57;;;;;;;33.00;14.50;;;;;;;13.90;77.96;100160.09;109989;1283;22155;-83
2023/07/05 02:15:28;;;;;;;34.70;14.30;;;;;;;13.86;77.93;100159.92;109971;1282;22180;-83
2023/07/05 02:17:59;;;;;;;28.80;13.90;;;;;;;13.81;77.87;100160.57;109946;1282;22339;-83
2023/07/05 02:20:31;;;;;;;32.40;15.00;;;;;;;13.77;77.97;100160.95;109954;1280;22149;-83
2023/07/05 02:23:02;;;;;;;31.60;14.20;;;;;;;13.75;78.32;100157.42;109940;1281;23320;-83
2023/07/05 02:25:33;;;;;;;31.50;14.90;;;;;;;13.74;78.50;100158.34;109945;1282;22191;-83
2023/07/05 02:28:08;;;;;;;33.10;15.50;;;;;;;13.74;78.68;100160.94;109970;1282;22165;-81
2023/07/05 02:30:40;;;;;;;32.20;15.20;;;;;;;13.73;78.73;100157.02;109952;1283;22194;-81
2023/07/05 02:33:11;;;;;;;33.80;15.90;;;;;;;13.71;78.81;100155.52;109965;1275;22157;-81
2023/07/05 02:35:42;;;;;;;30.90;15.10;;;;;;;13.69;79.18;100152.20;109965;1275;22194;-81
2023/07/05 02:38:13;;;;;;;36.50;17.10;;;;;;;13.68;79.52;100151.02;109931;1280;22149;-81
2023/07/05 02:40:49;;;;;;;34.90;15.60;;;;;;;13.65;79.56;100147.53;109928;1282;23116;-81
2023/07/05 02:43:20;;;;;;;37.10;15.70;;;;;;;13.63;79.29;100150.90;109856;1276;22844;-81
2023/07/05 02:45:51;;;;;;;31.50;15.30;;;;;;;13.61;79.50;100149.55;109975;1282;22174;-81
2023/07/05 02:48:21;;;;;;;31.80;14.50;;;;;;;13.58;79.36;100149.23;109941;1280;22667;-81
2023/07/05 02:50:53;;;;;;;33.50;16.40;;;;;;;13.52;79.37;100148.64;109964;1275;22153;-81
2023/07/05 02:53:23;;;;;;;29.40;13.90;;;;;;;13.47;79.23;100143.27;109936;1280;22800;-81
2023/07/05 02:55:55;;;;;;;32.40;14.80;;;;;;;13.44;79.22;100140.08;109920;1274;22244;-81
2023/07/05 02:58:26;;;;;;;32.10;15.20;;;;;;;13.41;79.17;100138.58;109921;1276;22363;-81
2023/07/05 03:00:57;;;;;;;34.40;15.70;;;;;;;13.38;79.24;100137.75;109926;1283;22176;-81
2023/07/05 03:03:28;;;;;;;34.70;15.80;;;;;;;13.36;79.34;100134.48;109924;1277;22156;-81
2023/07/05 03:06:01;;;;;;;38.20;17.80;;;;;;;13.37;79.71;100132.95;109973;1271;22128;-81
2023/07/05 03:08:31;;;;;;;34.10;16.30;;;;;;;13.40;79.98;100128.78;109916;1281;22203;-81
2023/07/05 03:11:02;;;;;;;33.40;15.70;;;;;;;13.42;80.29;100125.94;109949;1274;22186;-81
2023/07/05 03:13:35;;;;;;;36.80;16.90;;;;;;;13.44;80.35;100126.27;109945;1283;22628;-81
2023/07/05 03:16:07;;;;;;;35.40;16.60;;;;;;;13.48;80.52;100130.25;109916;1279;22294;-81
2023/07/05 03:18:38;;;;;;;40.10;17.30;;;;;;;13.48;80.60;100134.34;109956;1282;23185;-81
2023/07/05 03:21:09;;;;;;;35.10;16.30;;;;;;;13.48;80.73;100136.98;109973;1275;22182;-81
2023/07/05 03:23:39;;;;;;;40.30;17.80;;;;;;;13.47;80.80;100134.23;109951;1275;22902;-81
2023/07/05 03:26:11;;;;;;;35.80;16.80;;;;;;;13.47;81.12;100136.93;109941;1282;22209;-81
2023/07/05 03:28:42;;;;;;;32.60;15.50;;;;;;;13.48;81.11;100135.97;109942;1275;23010;-81
2023/07/05 03:31:14;;;;;;;37.60;17.90;;;;;;;13.47;81.05;100131.43;109950;1276;22386;-80
2023/07/05 03:33:45;;;;;;;41.70;17.40;;;;;;;13.47;81.37;100131.13;109959;1278;22221;-81
2023/07/05 03:36:20;;;;;;;39.30;16.90;;;;;;;13.47;81.28;100130.81;109965;1281;22147;-81
2023/07/05 03:38:52;;;;;;;33.90;16.00;;;;;;;13.46;81.17;100130.81;109949;1281;22147;-81
2023/07/05 03:41:26;;;;;;;39.60;17.20;;;;;;;13.42;81.20;100129.55;109939;1281;22169;-81
2023/07/05 03:43:58;;;;;;;35.00;15.90;;;;;;;13.40;81.55;100124.15;109973;1275;22178;-81
2023/07/05 03:46:30;;;;;;;33.60;15.10;;;;;;;13.39;81.41;100126.42;109959;1278;22203;-81
2023/07/05 03:49:00;;;;;;;31.70;14.90;;;;;;;13.39;81.49;100126.19;109963;1281;22249;-81
2023/07/05 03:51:31;;;;;;;34.10;15.90;;;;;;;13.40;81.55;100124.20;109957;1279;22964;-81
2023/07/05 03:54:02;;;;;;;29.70;13.50;;;;;;;13.41;81.56;100121.34;109933;1282;23292;-81
2023/07/05 03:56:34;;;;;;;33.00;15.20;;;;;;;13.43;82.05;100126.75;109934;1282;22182;-81
2023/07/05 03:59:05;;;;;;;33.20;15.00;;;;;;;13.44;82.12;100119.17;109936;1275;23008;-81
2023/07/05 04:01:36;;;;;;;33.80;16.20;;;;;;;13.49;82.39;100112.16;109939;1269;23326;-80
2023/07/05 04:04:07;;;;;;;36.30;16.00;;;;;;;13.54;82.56;100107.89;109957;1281;22380;-81
2023/07/05 04:06:38;;;;;;;33.80;14.50;;;;;;;13.59;82.68;100110.16;109965;1281;23009;-80
2023/07/05 04:09:09;;;;;;;37.60;17.50;;;;;;;13.66;83.04;100105.31;109939;1275;22385;-81
2023/07/05 04:11:39;;;;;;;39.20;19.20;;;;;;;13.73;83.12;100106.56;110032;1282;22847;-81
2023/07/05 04:14:12;;;;;;;40.20;19.10;;;;;;;13.81;83.26;100110.88;110027;1278;23094;-78
2023/07/05 04:16:42;;;;;;;40.20;19.30;;;;;;;13.89;83.38;100113.66;109941;1275;22152;-80
2023/07/05 04:19:15;;;;;;;39.30;17.90;;;;;;;13.96;83.42;100111.80;109942;1275;22370;-79
2023/07/05 04:21:46;;;;;;;42.10;20.40;;;;;;;14.03;83.52;100111.41;109950;1282;22184;-79
2023/07/05 04:24:16;;;;;;;40.20;19.20;;;;;;;14.10;83.77;100115.41;109872;1279;22367;-80
2023/07/05 04:26:47;;;;;;;36.20;17.20;;;;;;;14.18;83.71;100116.86;109917;1283;22170;-80
2023/07/05 04:29:18;;;;;;;35.10;18.30;;;;;;;14.26;84.14;100114.33;109910;1281;22162;-80
2023/07/05 04:31:49;;;;;;;39.70;19.30;;;;;;;14.35;84.15;100113.86;109943;1282;22402;-79
2023/07/05 04:34:19;;;;;;;38.20;17.60;;;;;;;14.45;84.00;100116.79;109930;1275;22775;-80
2023/07/05 04:36:50;;;;;;;39.00;17.90;;;;;;;14.53;84.11;100111.33;109982;1282;22198;-81
2023/07/05 04:39:21;;;;;;;37.70;18.70;;;;;;;14.64;84.05;100111.64;109962;1280;22257;-80
2023/07/05 04:41:52;;;;;;;40.00;20.40;;;;;;;14.74;84.07;100108.02;109961;1282;22172;-80
2023/07/05 04:44:23;;;;;;;38.50;19.00;;;;;;;14.83;83.85;100110.27;109946;1279;22173;-80
2023/07/05 04:46:54;;;;;;;41.00;20.00;;;;;;;14.93;83.78;100102.04;109962;1283;22211;-80
2023/07/05 04:49:24;;;;;;;37.20;17.80;;;;;;;15.03;83.65;100102.42;109899;1283;22336;-79
2023/07/05 04:51:55;;;;;;;41.80;21.00;;;;;;;15.13;83.89;100095.73;109945;1282;22157;-81
2023/07/05 04:54:26;;;;;;;42.30;20.50;;;;;;;15.24;83.93;100097.84;109959;1280;22205;-80
2023/07/05 04:56:56;;;;;;;47.00;21.20;;;;;;;15.35;83.71;100102.94;109929;1282;22865;-80
2023/07/05 04:59:30;;;;;;;42.90;20.70;;;;;;;15.46;83.79;100103.09;109962;1276;22194;-85
2023/07/05 05:02:02;;;;;;;38.00;19.30;;;;;;;15.56;83.47;100100.70;109970;1283;22264;-81
2023/07/05 05:04:33;;;;;;;40.00;20.50;;;;;;;15.66;83.46;100094.27;109991;1275;23011;-82
2023/07/05 05:07:06;;;;;;;45.60;21.00;;;;;;;15.78;83.41;100091.77;109981;1282;22185;-81
2023/07/05 05:09:41;;;;;;;42.10;20.30;;;;;;;15.91;83.25;100091.96;109904;1283;22164;-81
2023/07/05 05:12:12;;;;;;;39.90;20.20;;;;;;;16.03;83.19;100091.79;109895;1276;22182;-82
2023/07/05 05:14:43;;;;;;;38.50;19.60;;;;;;;16.16;82.92;100087.27;109957;1279;23028;-82
2023/07/05 05:17:14;;;;;;;39.20;18.80;;;;;;;16.30;83.05;100081.80;110032;1280;22335;-82
2023/07/05 05:19:45;;;;;;;43.40;21.70;;;;;;;16.46;82.49;100080.00;109954;1283;22839;-82
2023/07/05 05:22:16;;;;;;;43.80;20.80;;;;;;;16.57;81.66;100078.86;109935;1283;23791;-81
2023/07/05 05:24:46;;;;;;;41.40;20.20;;;;;;;16.68;81.34;100079.33;109966;1282;22247;-82
2023/07/05 05:27:17;;;;;;;43.30;20.40;;;;;;;16.79;81.42;100077.59;105860;1282;5398995;-82
2023/07/05 05:29:48;;;;;;;42.70;19.70;;;;;;;16.93;81.16;100070.14;109952;1271;22212;-83
2023/07/05 05:32:19;;;;;;;38.30;20.30;;;;;;;17.04;81.32;100073.46;109947;1280;22638;-82
2023/07/05 05:34:50;;;;;;;45.60;21.30;;;;;;;17.18;81.21;100069.33;109938;1281;22808;-81
2023/07/05 05:37:21;;;;;;;37.60;19.90;;;;;;;17.33;81.07;100067.36;109951;1283;22381;-82
2023/07/05 05:39:51;;;;;;;42.00;20.70;;;;;;;17.48;80.42;100063.35;109953;1279;22161;-82
2023/07/05 05:42:22;;;;;;;41.00;19.10;;;;;;;17.64;79.84;100068.05;109928;1279;22162;-82
2023/07/05 05:44:53;;;;;;;42.00;19.90;;;;;;;17.77;79.44;100060.39;109954;1275;22128;-82
2023/07/05 05:47:23;;;;;;;41.20;19.10;;;;;;;17.91;79.10;100056.93;109922;1278;22148;-82
2023/07/05 05:49:54;;;;;;;41.30;19.70;;;;;;;18.03;78.72;100052.80;109928;1280;22165;-82
2023/07/05 05:52:26;;;;;;;39.80;19.30;;;;;;;18.14;78.48;100059.67;109951;1281;22202;-82
2023/07/05 05:54:57;;;;;;;41.00;18.50;;;;;;;18.27;78.16;100065.48;109953;1281;23066;-82
2023/07/05 05:57:28;;;;;;;42.80;20.70;;;;;;;18.40;77.99;100065.65;109974;1276;22179;-82
2023/07/05 05:59:59;;;;;;;42.70;19.60;;;;;;;18.54;77.87;100064.37;109927;1280;22215;-84
2023/07/05 06:02:31;;;;;;;37.30;18.40;;;;;;;18.68;77.68;100064.81;109925;1283;22220;-82
2023/07/05 06:05:03;;;;;;;42.20;18.80;;;;;;;18.85;77.18;100057.64;109925;1275;22174;-82
2023/07/05 06:07:33;;;;;;;33.90;17.10;;;;;;;19.02;76.63;100060.94;109924;1282;22209;-83
2023/07/05 06:10:05;;;;;;;34.80;17.30;;;;;;;19.16;76.08;100060.81;109959;1282;22286;-82
2023/07/05 06:12:41;;;;;;;36.60;17.10;;;;;;;19.29;75.41;100069.73;109962;1282;22180;-82
2023/07/05 06:15:15;;;;;;;35.20;18.10;;;;;;;19.44;75.60;100068.91;109892;1273;22329;-83
2023/07/05 06:17:47;;;;;;;38.80;17.70;;;;;;;19.58;74.69;100070.32;109936;1282;22149;-82
2023/07/05 06:20:17;;;;;;;39.70;19.80;;;;;;;19.68;74.36;100066.77;109932;1282;22931;-82
2023/07/05 06:22:49;;;;;;;36.80;17.70;;;;;;;19.79;74.15;100064.33;109945;1281;22146;-82
2023/07/05 06:25:21;;;;;;;34.60;16.50;;;;;;;19.90;72.93;100060.95;109923;1275;22436;-83
2023/07/05 06:27:51;;;;;;;33.60;16.90;;;;;;;20.00;72.90;100057.06;109939;1283;22237;-82
2023/07/05 06:30:22;;;;;;;34.90;16.80;;;;;;;20.12;72.68;100055.92;109935;1282;22207;-83
2023/07/05 06:32:55;;;;;;;34.50;16.80;;;;;;;20.25;72.42;100053.75;109958;1283;23524;-83
2023/07/05 06:35:25;;;;;;;33.00;16.90;;;;;;;20.38;71.99;100055.24;109969;1282;22977;-82
2023/07/05 06:37:56;;;;;;;29.10;15.00;;;;;;;20.50;71.64;100054.35;109937;1281;22165;-83
2023/07/05 06:40:27;;;;;;;67.20;35.60;;;;;;;20.61;71.22;100049.88;109914;1283;22158;-82
2023/07/05 06:42:58;;;;;;;39.20;19.30;;;;;;;20.71;70.90;100044.79;109955;1283;22351;-83
2023/07/05 06:45:29;;;;;;;32.90;15.60;;;;;;;20.80;70.40;100048.00;109957;1275;22951;-82
2023/07/05 06:47:59;;;;;;;31.50;14.40;;;;;;;20.90;70.30;100043.16;109961;1282;22323;-82
2023/07/05 06:50:31;;;;;;;33.00;15.20;;;;;;;20.99;69.97;100040.14;109921;1282;22351;-83
2023/07/05 06:53:02;;;;;;;29.30;13.30;;;;;;;21.10;70.12;100042.54;109949;1281;22815;-82
2023/07/05 06:55:32;;;;;;;29.10;14.30;;;;;;;21.23;69.96;100053.11;109961;1275;22190;-83
2023/07/05 06:58:03;;;;;;;30.90;14.10;;;;;;;21.35;69.66;100050.46;109957;1282;22306;-82
2023/07/05 07:00:34;;;;;;;31.20;14.20;;;;;;;21.49;69.61;100046.49;109978;1276;22173;-82
2023/07/05 07:03:05;;;;;;;34.70;17.70;;;;;;;21.63;68.88;100044.04;109965;1282;22152;-82
2023/07/05 07:05:36;;;;;;;34.10;18.10;;;;;;;21.74;68.77;100041.29;109969;1279;22144;-82
2023/07/05 07:08:07;;;;;;;30.00;13.90;;;;;;;21.89;68.64;100039.21;109921;1279;22949;-84
2023/07/05 07:10:38;;;;;;;31.60;13.00;;;;;;;22.03;68.26;100031.35;109912;1282;22116;-82
2023/07/05 07:13:09;;;;;;;27.00;12.60;;;;;;;22.15;68.26;100031.38;109922;1282;22345;-83
2023/07/05 07:15:41;;;;;;;27.20;11.50;;;;;;;22.28;67.60;100028.79;109904;1280;22211;-83
2023/07/05 07:18:12;;;;;;;29.80;11.70;;;;;;;22.36;67.30;100025.02;109909;1283;22222;-83
2023/07/05 07:20:42;;;;;;;27.00;11.60;;;;;;;22.44;67.01;100022.63;109871;1278;22204;-82
2023/07/05 07:23:14;;;;;;;26.60;12.10;;;;;;;22.52;66.90;100019.34;109899;1283;22199;-83
2023/07/05 07:25:45;;;;;;;26.80;11.90;;;;;;;22.63;66.68;100016.23;109916;1283;22121;-83
2023/07/05 07:28:15;;;;;;;27.20;13.30;;;;;;;22.73;66.43;100016.01;109914;1278;23112;-83
2023/07/05 07:30:46;;;;;;;26.80;12.20;;;;;;;22.82;66.39;100011.34;109929;1279;22143;-83
2023/07/05 07:33:17;;;;;;;26.60;12.40;;;;;;;22.93;66.06;100010.64;109911;1277;22211;-83
2023/07/05 07:35:49;;;;;;;27.10;11.70;;;;;;;23.05;65.56;100010.90;109932;1281;22412;-83
2023/07/05 07:38:20;;;;;;;27.60;12.10;;;;;;;23.17;65.37;100003.48;109928;1277;22173;-85
2023/07/05 07:40:51;;;;;;;25.10;11.50;;;;;;;23.25;65.01;100002.85;109860;1281;22209;-83
2023/07/05 07:43:23;;;;;;;22.90;10.30;;;;;;;23.38;65.11;99999.28;109863;1276;22340;-83
2023/07/05 07:45:54;;;;;;;29.70;11.50;;;;;;;23.52;64.41;100000.56;109909;1281;22350;-83
2023/07/05 07:48:25;;;;;;;21.80;10.40;;;;;;;23.62;64.09;99996.34;109898;1278;22214;-83
2023/07/05 07:50:56;;;;;;;25.40;10.00;;;;;;;23.73;64.14;99995.53;109910;1275;23430;-82
2023/07/05 07:53:26;;;;;;;23.30;10.40;;;;;;;23.88;63.93;99997.27;109860;1276;22714;-81
2023/07/05 07:55:58;;;;;;;21.40;8.40;;;;;;;24.02;63.47;99999.28;109900;1278;22197;-83
2023/07/05 07:58:31;;;;;;;28.40;9.20;;;;;;;24.18;62.95;99997.80;109912;1278;22345;-83
2023/07/05 08:01:12;;;;;;;26.40;8.30;;;;;;;24.29;62.69;99995.89;109902;1281;22186;-83
2023/07/05 08:03:45;;;;;;;24.70;10.30;;;;;;;24.42;62.43;99995.64;109913;1283;22645;-83
2023/07/05 08:06:16;;;;;;;22.20;8.70;;;;;;;24.53;62.36;99993.08;109935;1283;22134;-83
2023/07/05 08:08:47;;;;;;;25.00;8.60;;;;;;;24.67;61.96;99991.68;109943;1275;22211;-84
2023/07/05 08:11:18;;;;;;;24.60;7.70;;;;;;;24.77;61.52;99994.15;109906;1281;22242;-83
2023/07/05 08:13:50;;;;;;;18.60;7.10;;;;;;;24.89;61.21;99989.43;109902;1276;23246;-83
2023/07/05 08:16:21;;;;;;;17.00;6.90;;;;;;;25.02;61.08;99988.16;109914;1276;22675;-84
2023/07/05 08:18:53;;;;;;;22.40;9.00;;;;;;;25.14;60.70;99984.98;109951;1283;22853;-83
2023/07/05 08:21:24;;;;;;;24.50;6.80;;;;;;;25.26;60.20;99980.02;109915;1277;23066;-83
2023/07/05 08:23:55;;;;;;;18.40;6.50;;;;;;;25.37;59.51;99977.69;109923;1280;22233;-83
2023/07/05 08:26:28;;;;;;;16.90;6.60;;;;;;;25.45;59.17;99974.52;109912;1282;22188;-83
2023/07/05 08:28:59;;;;;;;16.60;6.10;;;;;;;25.56;58.93;99975.02;109890;1280;22903;-84
2023/07/05 08:31:31;;;;;;;19.80;6.00;;;;;;;25.66;58.59;99973.79;109915;1282;22238;-83
2023/07/05 08:34:02;;;;;;;18.30;5.00;;;;;;;25.76;57.76;99967.29;109951;1278;22273;-83
2023/07/05 08:36:37;;;;;;;15.40;5.70;;;;;;;25.85;56.94;99970.79;109921;1280;22191;-84
2023/07/05 08:39:10;;;;;;;20.50;8.10;;;;;;;25.95;56.86;99971.87;109908;1283;22325;-83
2023/07/05 08:41:56;;;;;;;12.90;4.20;;;;;;;26.07;56.40;99966.67;109893;1281;22669;-83
2023/07/05 08:44:42;;;;;;;13.10;4.10;;;;;;;26.19;55.88;99964.80;109859;1281;22135;-84
2023/07/05 08:47:23;;;;;;;13.60;4.50;;;;;;;26.31;55.55;99962.43;109917;1281;22331;-82
2023/07/05 08:50:04;;;;;;;17.10;4.80;;;;;;;26.41;55.32;99956.80;109926;1280;22154;-83
2023/07/05 08:52:40;;;;;;;14.80;4.40;;;;;;;26.54;54.83;99950.92;109906;1280;22907;-83
2023/07/05 08:55:16;;;;;;;14.90;4.50;;;;;;;26.64;54.49;99951.48;109944;1277;22344;-83
2023/07/05 08:57:53;;;;;;;14.70;4.80;;;;;;;26.75;54.00;99947.04;109940;1280;22172;-83
2023/07/05 09:00:27;;;;;;;14.50;4.00;;;;;;;26.84;53.55;99948.29;109923;1283;22592;-85
2023/07/05 09:02:58;;;;;;;10.80;4.20;;;;;;;26.94;52.90;99946.16;109937;1281;22210;-83
2023/07/05 09:05:34;;;;;;;16.30;3.90;;;;;;;27.02;52.43;99945.80;109934;1282;22244;-83
2023/07/05 09:08:20;;;;;;;15.10;4.40;;;;;;;27.12;52.16;99945.46;109943;1281;22203;-83
2023/07/05 09:10:56;;;;;;;12.60;4.20;;;;;;;27.25;51.74;99942.39;109969;1280;22181;-85
2023/07/05 09:13:36;;;;;;;13.50;4.00;;;;;;;27.36;51.63;99939.75;109935;1277;22199;-84
2023/07/05 09:16:17;;;;;;;12.10;4.30;;;;;;;27.49;50.16;99936.14;109941;1283;22301;-85
2023/07/05 09:19:09;;;;;;;12.00;2.80;;;;;;;27.60;48.86;99935.39;109932;1283;22179;-85
2023/07/05 09:21:46;;;;;;;12.70;4.00;;;;;;;27.69;48.04;99931.17;109959;1283;22175;-84
2023/07/05 09:24:22;;;;;;;13.90;3.60;;;;;;;27.76;48.09;99931.14;109959;1283;22198;-84
2023/07/05 09:26:56;;;;;;;13.40;4.00;;;;;;;27.84;47.81;99929.58;109956;1280;22155;-84
2023/07/05 09:29:34;;;;;;;11.70;3.20;;;;;;;27.94;46.88;99929.85;109913;1283;22191;-85
2023/07/05 09:32:11;;;;;;;12.60;3.60;;;;;;;28.03;46.64;99933.09;109979;1277;22216;-84
2023/07/05 09:34:46;;;;;;;12.20;2.90;;;;;;;28.15;45.81;99932.35;109940;1284;22692;-87
2023/07/05 09:37:21;;;;;;;15.40;3.10;;;;;;;28.24;45.53;99930.89;109951;1277;22350;-85
2023/07/05 09:40:17;;;;;;;9.60;2.80;;;;;;;28.32;44.66;99926.27;109969;1283;22334;-87
2023/07/05 09:42:53;;;;;;;10.40;3.30;;;;;;;28.38;43.98;99925.12;109995;1277;22961;-85
2023/07/05 09:45:24;;;;;;;15.30;3.10;;;;;;;28.44;42.96;99928.23;109964;1277;22182;-85
2023/07/05 09:47:59;;;;;;;15.40;2.80;;;;;;;28.51;42.34;99922.18;109965;1280;22879;-86
2023/07/05 09:50:30;;;;;;;12.50;2.30;;;;;;;28.57;42.42;99920.27;109909;1283;22212;-84
2023/07/05 09:53:17;;;;;;;9.00;2.40;;;;;;;28.61;41.73;99916.11;109889;1277;22227;-87
2023/07/05 09:56:04;;;;;;;11.70;3.50;;;;;;;28.66;41.32;99911.48;109943;1281;22150;-85
2023/07/05 09:58:36;;;;;;;10.90;3.00;;;;;;;28.75;41.27;99905.92;109929;1276;22214;-84
2023/07/05 10:01:14;;;;;;;9.20;2.60;;;;;;;28.82;41.21;99906.05;109962;1276;22752;-86
2023/07/05 10:03:54;;;;;;;11.30;2.80;;;;;;;28.88;40.95;99904.45;109981;1283;22214;-84
2023/07/05 10:06:29;;;;;;;9.80;2.60;;;;;;;28.93;40.46;99906.13;109924;1276;22161;-85
2023/07/05 10:09:12;;;;;;;10.30;1.90;;;;;;;28.98;40.37;99899.08;109953;1280;22181;-86
2023/07/05 10:11:48;;;;;;;12.40;2.10;;;;;;;29.01;39.63;99895.84;109916;1283;22173;-84
2023/07/05 10:14:21;;;;;;;8.20;2.20;;;;;;;29.04;40.00;99891.63;109934;1276;22235;-85
2023/07/05 10:16:55;;;;;;;8.10;2.00;;;;;;;29.12;39.62;99885.30;109913;1284;23049;-85
2023/07/05 10:19:29;;;;;;;7.00;1.90;;;;;;;29.21;38.83;99886.05;109912;1282;22315;-84
2023/07/05 10:22:06;;;;;;;7.90;1.50;;;;;;;29.34;38.65;99877.70;109980;1277;22398;-84
2023/07/05 10:24:58;;;;;;;8.20;1.50;;;;;;;29.43;37.86;99871.80;109940;1283;22148;-84
2023/07/05 10:27:33;;;;;;;7.80;1.80;;;;;;;29.47;37.80;99869.34;109943;1276;22215;-86
2023/07/05 10:30:27;;;;;;;9.50;1.60;;;;;;;29.59;38.00;99862.76;109939;1280;22183;-86
2023/07/05 10:33:16;;;;;;;7.50;1.60;;;;;;;29.73;37.25;99863.66;109931;1280;22920;-86
2023/07/05 10:35:57;;;;;;;9.00;1.60;;;;;;;29.70;37.17;99864.61;109938;1282;22162;-86
2023/07/05 10:38:30;;;;;;;7.70;1.70;;;;;;;29.67;37.02;99864.25;109918;1277;22207;-88
2023/07/05 10:41:06;;;;;;;6.70;1.90;;;;;;;29.61;36.93;99861.31;109918;1280;22227;-85
2023/07/05 10:43:38;;;;;;;8.10;1.80;;;;;;;29.55;36.98;99868.58;109916;1277;22866;-84
2023/07/05 10:46:12;;;;;;;9.20;2.00;;;;;;;29.52;37.12;99868.19;109964;1276;22839;-85
2023/07/05 10:48:45;;;;;;;10.90;1.80;;;;;;;29.49;37.34;99867.86;109940;1276;22300;-84
2023/07/05 10:51:21;;;;;;;7.20;1.90;;;;;;;29.57;37.90;99864.96;109904;1280;22204;-85
2023/07/05 10:53:58;;;;;;;9.30;2.40;;;;;;;29.72;38.12;99863.14;109945;1280;22336;-85
2023/07/05 10:56:34;;;;;;;8.10;1.70;;;;;;;29.82;37.90;99859.90;109905;1282;22156;-85
2023/07/05 10:59:19;;;;;;;7.50;2.40;;;;;;;29.84;37.56;99853.90;109931;1277;22176;-85
2023/07/05 11:01:55;;;;;;;13.40;2.00;;;;;;;29.84;37.90;99850.86;109936;1276;22172;-88
2023/07/05 11:04:29;;;;;;;9.50;2.10;;;;;;;29.93;38.00;99842.67;109909;1277;22240;-84
2023/07/05 11:07:10;;;;;;;8.80;2.10;;;;;;;30.01;37.51;99838.73;109946;1272;23013;-85
2023/07/05 11:09:42;;;;;;;10.90;2.30;;;;;;;30.00;37.62;99838.92;109893;1284;22195;-86
2023/07/05 11:12:22;;;;;;;8.40;1.90;;;;;;;30.06;38.14;99832.71;109846;1284;22137;-85
2023/07/05 11:14:54;;;;;;;8.00;1.90;;;;;;;30.18;38.26;99828.69;109874;1277;22217;-84
2023/07/05 11:17:32;;;;;;;7.60;1.70;;;;;;;30.17;37.75;99823.14;109915;1276;22678;-85
2023/07/05 11:20:06;;;;;;;4.90;1.50;;;;;;;30.13;37.70;99821.88;109887;1278;22190;-85
2023/07/05 11:22:43;;;;;;;10.40;1.80;;;;;;;30.15;37.74;99815.66;109832;1285;22183;-85
2023/07/05 11:25:19;;;;;;;6.00;1.20;;;;;;;30.22;37.57;99814.08;109904;1276;23246;-85
2023/07/05 11:27:53;;;;;;;6.90;1.30;;;;;;;30.28;37.41;99807.71;109883;1284;22336;-84
2023/07/05 11:30:47;;;;;;;7.00;1.40;;;;;;;30.33;37.46;99805.84;109858;1284;22973;-82
2023/07/05 11:33:22;;;;;;;12.40;1.90;;;;;;;30.34;37.85;99801.44;109861;1277;22216;-85
2023/07/05 11:35:56;;;;;;;7.00;1.90;;;;;;;30.30;37.66;99791.14;109889;1281;22913;-85
2023/07/05 11:38:57;;;;;;;7.30;2.00;;;;;;;30.17;37.64;99794.48;109836;1284;22178;-85